Time;durP1;ratioP1;P1;durP2;ratioP2;P2;SDS_P1;SDS_P2;PMS_P1;PMS_P2;Temp;Humidity;BMP_temperature;BMP_pressure;BME280_temperature;BME280_humidity;BME280_pressure;Samples;Min_cycle;Max_cycle;Signal;HPM_P1;HPM_P2
2021/11/05 00:00:37;;;;;;;1.10;0.98;;;7.60;99.90;;;;;;5054212;28;20036;-37
2021/11/05 00:03:03;;;;;;;0.80;0.80;;;7.50;99.90;;;;;;5072869;28;20038;-37
2021/11/05 00:05:31;;;;;;;1.48;1.00;;;7.60;99.90;;;;;;5072627;28;20043;-37
2021/11/05 00:07:56;;;;;;;1.40;0.90;;;7.50;99.90;;;;;;5072844;28;20029;-37
2021/11/05 00:10:23;;;;;;;1.88;0.95;;;7.50;99.90;;;;;;5072630;28;20052;-37
2021/11/05 00:12:49;;;;;;;1.45;0.95;;;7.50;99.90;;;;;;5072697;28;20024;-38
2021/11/05 00:15:14;;;;;;;2.03;0.77;;;7.50;99.90;;;;;;5071879;28;20525;-37
2021/11/05 00:17:40;;;;;;;0.90;0.70;;;7.40;99.90;;;;;;5071986;28;20410;-37
2021/11/05 00:20:07;;;;;;;0.90;0.80;;;7.40;99.90;;;;;;5072113;28;20040;-37
2021/11/05 00:22:34;;;;;;;2.30;0.60;;;7.40;99.90;;;;;;5072136;28;20028;-37
2021/11/05 00:25:00;;;;;;;1.33;0.80;;;7.40;99.90;;;;;;5072528;28;20400;-36
2021/11/05 00:27:26;;;;;;;0.52;0.50;;;7.40;99.90;;;;;;5072267;28;20064;-37
2021/11/05 00:29:52;;;;;;;1.05;0.70;;;7.30;99.90;;;;;;5071400;28;20482;-37
2021/11/05 00:32:17;;;;;;;1.02;0.60;;;7.40;99.90;;;;;;5072077;28;20049;-37
2021/11/05 00:34:43;;;;;;;0.63;0.63;;;7.30;99.90;;;;;;5072157;28;20041;-38
2021/11/05 00:37:08;;;;;;;0.70;0.50;;;7.30;99.90;;;;;;5072071;28;20507;-39
2021/11/05 00:39:34;;;;;;;0.70;0.60;;;7.30;99.90;;;;;;5071829;28;20086;-38
2021/11/05 00:41:59;;;;;;;0.90;0.60;;;7.30;99.90;;;;;;5071805;28;20032;-39
2021/11/05 00:44:25;;;;;;;0.77;0.70;;;7.30;99.90;;;;;;5071048;28;20043;-37
2021/11/05 00:46:51;;;;;;;0.93;0.70;;;7.30;99.90;;;;;;5072014;28;20490;-37
2021/11/05 00:49:17;;;;;;;1.42;0.70;;;7.30;99.90;;;;;;5071920;28;20537;-39
2021/11/05 00:51:42;;;;;;;1.52;0.80;;;7.30;99.90;;;;;;5071097;28;20147;-37
2021/11/05 00:54:08;;;;;;;0.85;0.77;;;7.30;99.90;;;;;;5073285;28;20143;-37
2021/11/05 00:56:35;;;;;;;2.22;0.80;;;7.30;99.90;;;;;;5073273;28;20017;-37
2021/11/05 00:59:00;;;;;;;0.90;0.90;;;7.30;99.90;;;;;;5072478;28;20361;-37
2021/11/05 01:01:26;;;;;;;1.25;0.90;;;7.20;99.90;;;;;;5073299;28;20088;-38
2021/11/05 01:03:51;;;;;;;1.15;0.90;;;7.20;99.90;;;;;;5073265;28;20040;-37
2021/11/05 01:06:18;;;;;;;0.50;0.50;;;7.20;99.90;;;;;;5073357;28;20115;-37
2021/11/05 01:08:44;;;;;;;0.80;0.80;;;7.20;99.90;;;;;;5073023;28;20147;-37
2021/11/05 01:11:09;;;;;;;0.85;0.68;;;7.20;99.90;;;;;;5073204;28;20029;-37
2021/11/05 01:13:35;;;;;;;0.95;0.70;;;7.20;99.90;;;;;;5073104;28;20032;-38
2021/11/05 01:16:01;;;;;;;0.80;0.60;;;7.20;99.90;;;;;;5072298;28;20031;-38
2021/11/05 01:18:26;;;;;;;1.08;0.75;;;7.20;99.90;;;;;;5073073;28;20472;-37
2021/11/05 01:20:54;;;;;;;0.65;0.55;;;7.20;99.90;;;;;;5073028;28;20033;-37
2021/11/05 01:23:21;;;;;;;0.70;0.70;;;7.20;99.90;;;;;;5072899;28;20059;-37
2021/11/05 01:25:48;;;;;;;1.27;0.70;;;7.20;99.90;;;;;;5072901;28;20028;-38
2021/11/05 01:28:13;;;;;;;0.60;0.60;;;7.20;99.90;;;;;;5073037;28;20152;-37
2021/11/05 01:30:39;;;;;;;1.20;0.77;;;7.20;99.90;;;;;;5071724;28;20414;-37
2021/11/05 01:33:07;;;;;;;0.68;0.68;;;7.20;99.90;;;;;;5072788;28;20127;-37
2021/11/05 01:35:36;;;;;;;1.85;0.88;;;7.20;99.90;;;;;;5072784;28;20032;-38
2021/11/05 01:38:02;;;;;;;1.02;0.60;;;7.20;99.90;;;;;;5072775;28;20017;-37
2021/11/05 01:40:28;;;;;;;0.70;0.50;;;7.20;99.90;;;;;;5072812;28;20066;-37
2021/11/05 01:42:55;;;;;;;1.63;0.70;;;7.30;99.90;;;;;;5072766;28;20033;-37
2021/11/05 01:45:21;;;;;;;0.50;0.50;;;7.30;99.90;;;;;;5071866;28;20033;-37
2021/11/05 01:47:46;;;;;;;0.80;0.70;;;7.30;99.90;;;;;;5072656;28;20055;-38
2021/11/05 01:50:13;;;;;;;0.70;0.70;;;7.30;99.90;;;;;;5072497;28;20073;-38
2021/11/05 01:52:40;;;;;;;2.05;0.70;;;7.30;99.90;;;;;;5072580;28;20028;-37
2021/11/05 01:55:06;;;;;;;2.25;0.73;;;7.30;99.90;;;;;;5072681;28;20032;-39
2021/11/05 01:57:32;;;;;;;0.52;0.52;;;7.30;99.90;;;;;;5072518;28;20483;-37
2021/11/05 01:59:57;;;;;;;0.77;0.77;;;7.30;99.90;;;;;;5071548;28;20047;-37
2021/11/05 02:02:23;;;;;;;0.73;0.70;;;7.30;99.90;;;;;;5072593;28;20047;-37
2021/11/05 02:04:48;;;;;;;2.58;0.80;;;7.30;99.90;;;;;;5072355;28;20028;-37
2021/11/05 02:07:15;;;;;;;0.65;0.65;;;7.30;99.90;;;;;;5072525;28;20037;-37
2021/11/05 02:09:42;;;;;;;0.95;0.70;;;7.30;99.90;;;;;;5074629;28;20459;-37
2021/11/05 02:12:08;;;;;;;1.10;0.75;;;7.30;99.90;;;;;;5076574;28;20082;-36
2021/11/05 02:14:34;;;;;;;1.02;0.90;;;7.30;99.90;;;;;;5075623;28;20067;-36
2021/11/05 02:17:03;;;;;;;0.63;0.60;;;7.30;99.90;;;;;;5076554;28;20024;-36
2021/11/05 02:19:31;;;;;;;1.48;0.70;;;7.30;99.90;;;;;;5076328;28;20112;-37
2021/11/05 02:21:58;;;;;;;0.73;0.50;;;7.30;99.90;;;;;;5076384;28;20043;-37
2021/11/05 02:24:26;;;;;;;1.30;0.90;;;7.30;99.90;;;;;;5076386;28;20051;-37
2021/11/05 02:26:52;;;;;;;0.75;0.73;;;7.40;99.90;;;;;;5076202;28;20043;-37
2021/11/05 02:29:18;;;;;;;0.52;0.52;;;7.40;99.90;;;;;;5075292;28;20040;-37
2021/11/05 02:31:44;;;;;;;1.15;0.50;;;7.40;99.90;;;;;;5075998;28;20037;-38
2021/11/05 02:34:10;;;;;;;1.17;0.65;;;7.40;99.90;;;;;;5076127;28;20027;-37
2021/11/05 02:36:36;;;;;;;0.82;0.60;;;7.40;99.90;;;;;;5076152;28;20514;-37
2021/11/05 02:39:07;;;;;;;1.05;0.80;;;7.40;99.90;;;;;;5076192;28;20025;-40
2021/11/05 02:41:38;;;;;;;0.47;0.47;;;7.40;99.90;;;;;;5076014;28;20028;-37
2021/11/05 02:44:03;;;;;;;2.60;1.02;;;7.40;99.90;;;;;;5075166;28;20039;-37
2021/11/05 02:46:29;;;;;;;1.58;0.82;;;7.40;99.90;;;;;;5076015;28;20442;-38
2021/11/05 02:48:59;;;;;;;1.10;0.80;;;7.40;99.90;;;;;;5075688;28;20036;-37
2021/11/05 02:51:26;;;;;;;0.77;0.57;;;7.40;99.90;;;;;;5075879;28;20111;-37
2021/11/05 02:53:52;;;;;;;1.05;0.60;;;7.40;99.90;;;;;;5075782;28;20209;-37
2021/11/05 02:56:18;;;;;;;1.00;0.88;;;7.40;99.90;;;;;;5075818;28;20017;-37
2021/11/05 02:58:44;;;;;;;1.00;0.90;;;7.40;99.90;;;;;;5075655;28;20028;-39
2021/11/05 03:01:09;;;;;;;0.60;0.60;;;7.40;99.90;;;;;;5074695;28;20016;-37
2021/11/05 03:03:35;;;;;;;1.00;0.90;;;7.40;99.90;;;;;;5075645;28;20028;-37
2021/11/05 03:06:00;;;;;;;1.17;0.82;;;7.40;99.90;;;;;;5075648;28;20029;-37
2021/11/05 03:08:26;;;;;;;1.52;0.80;;;7.40;99.90;;;;;;5075678;28;20142;-38
2021/11/05 03:10:52;;;;;;;1.58;0.90;;;7.40;99.90;;;;;;5075403;28;20025;-38
2021/11/05 03:13:19;;;;;;;1.85;0.88;;;7.40;99.90;;;;;;5075544;28;20526;-38
2021/11/05 03:15:44;;;;;;;1.35;0.80;;;7.40;99.90;;;;;;5074414;28;20056;-38
2021/11/05 03:18:10;;;;;;;1.73;0.90;;;7.40;99.90;;;;;;5075357;28;20064;-38
2021/11/05 03:20:36;;;;;;;1.25;1.05;;;7.40;99.90;;;;;;5074029;28;20062;-39
2021/11/05 03:23:02;;;;;;;1.88;0.90;;;7.40;99.90;;;;;;5075238;28;20036;-37
2021/11/05 03:25:27;;;;;;;1.42;0.90;;;7.40;99.90;;;;;;5075558;28;20057;-39
2021/11/05 03:27:53;;;;;;;0.70;0.70;;;7.40;99.90;;;;;;5075084;28;20039;-37
2021/11/05 03:30:21;;;;;;;1.25;0.80;;;7.30;99.90;;;;;;5074112;28;20055;-39
2021/11/05 03:32:47;;;;;;;1.05;0.90;;;7.30;99.90;;;;;;5074848;28;20052;-38
2021/11/05 03:35:13;;;;;;;1.17;1.00;;;7.30;99.90;;;;;;5075081;28;20032;-38
2021/11/05 03:37:40;;;;;;;1.50;1.00;;;7.40;99.90;;;;;;5074969;28;20028;-38
2021/11/05 03:40:09;;;;;;;1.25;1.00;;;7.30;99.90;;;;;;5074979;28;20070;-37
2021/11/05 03:42:35;;;;;;;2.50;1.48;;;7.40;99.90;;;;;;5074992;28;20024;-37
2021/11/05 03:45:01;;;;;;;1.25;1.10;;;7.30;99.90;;;;;;5073732;28;20044;-37
2021/11/05 03:47:26;;;;;;;1.35;1.02;;;7.30;99.90;;;;;;5074829;28;20028;-37
2021/11/05 03:49:52;;;;;;;1.00;0.90;;;7.30;99.90;;;;;;5074672;28;20119;-37
2021/11/05 03:52:17;;;;;;;1.27;1.10;;;7.30;99.90;;;;;;5074775;28;20056;-37
2021/11/05 03:54:43;;;;;;;2.70;1.40;;;7.30;99.90;;;;;;5074664;28;20158;-37
2021/11/05 03:57:09;;;;;;;1.10;1.00;;;7.30;99.90;;;;;;5074540;28;20024;-37
2021/11/05 03:59:35;;;;;;;0.93;0.80;;;7.30;99.90;;;;;;5073569;28;20032;-38
2021/11/05 04:02:00;;;;;;;1.80;1.20;;;7.30;99.90;;;;;;5074449;28;20487;-37
2021/11/05 04:04:26;;;;;;;2.33;1.15;;;7.30;99.90;;;;;;5074568;28;20028;-37
2021/11/05 04:06:52;;;;;;;1.83;1.58;;;7.40;99.90;;;;;;5074431;28;20495;-37
2021/11/05 04:09:18;;;;;;;2.05;1.48;;;7.40;99.90;;;;;;5074450;28;20032;-37
2021/11/05 04:11:43;;;;;;;2.30;1.60;;;7.40;99.90;;;;;;5074421;28;20380;-37
2021/11/05 04:14:10;;;;;;;2.55;1.70;;;7.40;99.90;;;;;;5073230;28;20028;-37
2021/11/05 04:16:35;;;;;;;2.00;1.30;;;7.40;99.90;;;;;;5074307;28;20194;-37
2021/11/05 04:19:01;;;;;;;1.60;1.25;;;7.40;99.90;;;;;;5074208;28;20024;-37
2021/11/05 04:21:26;;;;;;;2.03;1.42;;;7.40;99.90;;;;;;5074173;28;20028;-37
2021/11/05 04:23:52;;;;;;;2.03;1.40;;;7.40;99.90;;;;;;5074136;28;20036;-37
2021/11/05 04:26:18;;;;;;;2.78;1.50;;;7.40;99.90;;;;;;5074112;28;20469;-37
2021/11/05 04:28:43;;;;;;;2.90;1.80;;;7.40;99.90;;;;;;5072645;28;20040;-40
2021/11/05 04:31:09;;;;;;;2.10;1.67;;;7.40;99.90;;;;;;5072931;28;20035;-37
2021/11/05 04:33:35;;;;;;;2.53;1.88;;;7.50;99.90;;;;;;5073698;28;20052;-37
2021/11/05 04:36:02;;;;;;;3.15;1.98;;;7.50;99.90;;;;;;5073837;28;20027;-37
2021/11/05 04:38:28;;;;;;;4.43;1.90;;;7.50;99.90;;;;;;5073792;28;20060;-37
2021/11/05 04:40:54;;;;;;;3.40;2.10;;;7.50;99.90;;;;;;5073759;28;20242;-37
2021/11/05 04:43:20;;;;;;;2.83;1.77;;;7.50;99.90;;;;;;5073737;28;20024;-38
2021/11/05 04:45:45;;;;;;;2.80;1.95;;;7.60;99.90;;;;;;5072452;28;20034;-37
2021/11/05 04:48:11;;;;;;;3.22;2.50;;;7.60;99.90;;;;;;5073655;28;20035;-37
2021/11/05 04:50:37;;;;;;;5.22;2.33;;;7.70;99.90;;;;;;5073578;28;20055;-37
2021/11/05 04:53:04;;;;;;;2.90;2.10;;;7.60;99.90;;;;;;5073465;28;20379;-37
2021/11/05 04:55:30;;;;;;;3.17;2.60;;;7.60;99.90;;;;;;5073722;28;20032;-37
2021/11/05 04:57:57;;;;;;;3.58;2.45;;;7.70;99.90;;;;;;5073341;28;20032;-37
2021/11/05 05:00:24;;;;;;;4.43;2.58;;;7.70;99.90;;;;;;5072341;28;20085;-38
2021/11/05 05:02:50;;;;;;;2.83;2.33;;;7.70;99.90;;;;;;5073279;28;20498;-38
2021/11/05 05:05:16;;;;;;;4.07;2.70;;;7.70;99.90;;;;;;5069841;28;20028;-38
2021/11/05 05:07:42;;;;;;;3.78;2.83;;;7.80;99.90;;;;;;5073043;28;20062;-37
2021/11/05 05:10:09;;;;;;;3.88;3.20;;;7.80;99.90;;;;;;5072814;28;20537;-37
2021/11/05 05:12:35;;;;;;;3.85;3.15;;;7.80;99.90;;;;;;5072868;28;20024;-40
2021/11/05 05:15:00;;;;;;;3.50;2.85;;;7.80;99.90;;;;;;5071768;28;20017;-37
2021/11/05 05:17:26;;;;;;;3.42;2.83;;;7.80;99.90;;;;;;5072851;28;20290;-38
2021/11/05 05:19:51;;;;;;;4.60;3.65;;;7.90;99.90;;;;;;5072651;28;20036;-37
2021/11/05 05:22:17;;;;;;;4.35;3.33;;;7.90;99.90;;;;;;5073007;28;20043;-37
2021/11/05 05:24:43;;;;;;;5.15;3.65;;;7.90;99.90;;;;;;5072818;28;20025;-37
2021/11/05 05:27:08;;;;;;;4.57;3.42;;;7.90;99.90;;;;;;5072829;28;20091;-37
2021/11/05 05:29:34;;;;;;;5.63;4.40;;;8.00;99.90;;;;;;5071847;28;20028;-37
2021/11/05 05:32:00;;;;;;;6.03;4.78;;;8.00;99.90;;;;;;5072542;28;20045;-37
2021/11/05 05:34:25;;;;;;;5.95;4.53;;;8.00;99.90;;;;;;5072897;28;20115;-37
2021/11/05 05:36:51;;;;;;;5.55;4.47;;;8.00;99.90;;;;;;5072851;28;20074;-37
2021/11/05 05:39:16;;;;;;;6.18;4.72;;;8.00;99.90;;;;;;5072818;28;20056;-37
2021/11/05 05:41:42;;;;;;;7.28;4.57;;;8.00;99.90;;;;;;5072790;28;20493;-37
2021/11/05 05:44:07;;;;;;;7.00;5.55;;;8.10;99.90;;;;;;5070825;28;20511;-37
2021/11/05 05:46:33;;;;;;;8.05;6.03;;;8.10;99.90;;;;;;5072770;28;20024;-37
2021/11/05 05:48:59;;;;;;;9.20;5.75;;;8.10;99.90;;;;;;5072546;28;20032;-37
2021/11/05 05:51:24;;;;;;;8.13;6.07;;;8.10;99.90;;;;;;5072629;28;20039;-37
2021/11/05 05:53:50;;;;;;;13.07;9.27;;;8.10;99.90;;;;;;5072619;28;20032;-37
2021/11/05 05:56:15;;;;;;;9.82;7.00;;;8.10;99.90;;;;;;5072565;28;20032;-37
2021/11/05 05:58:41;;;;;;;11.48;8.35;;;8.20;99.90;;;;;;5072432;28;20029;-37
2021/11/05 06:01:06;;;;;;;12.82;8.85;;;8.20;99.90;;;;;;5071724;28;20079;-37
2021/11/05 06:03:32;;;;;;;14.20;8.90;;;8.20;99.90;;;;;;5072585;28;20055;-37
2021/11/05 06:05:57;;;;;;;13.93;8.50;;;8.20;99.90;;;;;;5072510;28;20027;-37
2021/11/05 06:08:23;;;;;;;13.90;10.27;;;8.20;99.90;;;;;;5072300;28;20067;-37
2021/11/05 06:10:49;;;;;;;12.85;9.27;;;8.30;99.90;;;;;;5072620;28;20029;-38
2021/11/05 06:13:15;;;;;;;12.80;8.50;;;8.30;99.90;;;;;;5071971;28;20115;-37
2021/11/05 06:15:40;;;;;;;12.02;8.55;;;8.20;99.90;;;;;;5058274;28;20131;-37
2021/11/05 06:18:06;;;;;;;14.43;10.48;;;8.20;99.90;;;;;;5069658;28;20039;-38
2021/11/05 06:20:32;;;;;;;14.35;11.07;;;8.30;99.90;;;;;;5070673;28;20027;-38
2021/11/05 06:22:57;;;;;;;15.02;10.75;;;8.30;99.90;;;;;;5070738;28;20116;-37
2021/11/05 06:25:23;;;;;;;14.70;10.27;;;8.20;99.90;;;;;;5070721;28;20024;-38
2021/11/05 06:27:49;;;;;;;15.82;10.75;;;8.20;99.90;;;;;;5070446;28;20031;-38
2021/11/05 06:30:15;;;;;;;15.82;10.73;;;8.20;99.90;;;;;;5069224;28;20043;-38
2021/11/05 06:32:41;;;;;;;15.23;9.85;;;8.20;99.90;;;;;;5070604;28;20229;-37
2021/11/05 06:35:08;;;;;;;15.15;9.88;;;8.30;99.90;;;;;;5070599;28;20020;-37
2021/11/05 06:37:37;;;;;;;16.27;11.00;;;8.30;99.90;;;;;;5059162;28;20425;-37
2021/11/05 06:40:04;;;;;;;16.00;10.82;;;8.20;99.90;;;;;;5070454;28;20036;-37
2021/11/05 06:42:30;;;;;;;16.92;11.38;;;8.20;99.90;;;;;;5070401;28;20087;-37
2021/11/05 06:44:55;;;;;;;16.88;10.65;;;8.20;99.90;;;;;;5068003;28;20032;-37
2021/11/05 06:47:21;;;;;;;13.70;9.55;;;8.20;99.90;;;;;;5070326;28;20028;-37
2021/11/05 06:49:47;;;;;;;15.90;9.90;;;8.30;99.90;;;;;;5070427;28;20143;-37
2021/11/05 06:52:12;;;;;;;18.10;10.77;;;8.20;99.90;;;;;;5070406;28;20052;-37
2021/11/05 06:54:38;;;;;;;14.18;9.27;;;8.30;99.90;;;;;;5070988;28;20028;-37
2021/11/05 06:57:05;;;;;;;16.77;10.45;;;8.30;99.90;;;;;;5073811;28;20027;-37
2021/11/05 06:59:31;;;;;;;19.70;11.88;;;8.30;99.90;;;;;;5073252;28;20068;-37
2021/11/05 07:01:56;;;;;;;15.23;10.07;;;8.30;99.90;;;;;;5074197;28;20056;-38
2021/11/05 07:04:22;;;;;;;15.98;11.40;;;8.30;99.90;;;;;;5074192;28;20051;-37
2021/11/05 07:06:48;;;;;;;14.43;10.23;;;8.30;99.90;;;;;;5074207;28;20056;-38
2021/11/05 07:09:15;;;;;;;17.33;10.57;;;8.30;99.90;;;;;;5073989;28;20099;-37
2021/11/05 07:11:41;;;;;;;15.77;10.13;;;8.30;99.90;;;;;;5073931;28;20135;-37
2021/11/05 07:14:07;;;;;;;14.63;10.15;;;8.40;99.90;;;;;;5072780;28;20031;-38
2021/11/05 07:16:33;;;;;;;16.98;11.07;;;8.40;99.90;;;;;;5073995;28;20028;-37
2021/11/05 07:18:59;;;;;;;17.65;9.93;;;8.40;99.90;;;;;;5073958;28;20029;-37
2021/11/05 07:21:26;;;;;;;15.70;10.30;;;8.50;99.90;;;;;;5073863;28;20502;-37
2021/11/05 07:23:52;;;;;;;19.05;10.65;;;8.50;99.90;;;;;;5073886;28;20032;-38
2021/11/05 07:26:17;;;;;;;13.20;9.68;;;8.50;99.90;;;;;;5071649;28;20103;-37
2021/11/05 07:28:43;;;;;;;16.58;9.77;;;8.50;99.90;;;;;;5072834;28;20487;-38
2021/11/05 07:31:09;;;;;;;15.10;10.13;;;8.50;99.90;;;;;;5073172;28;20070;-38
2021/11/05 07:33:34;;;;;;;14.88;9.95;;;8.50;99.90;;;;;;5073644;28;20049;-37
2021/11/05 07:36:00;;;;;;;17.13;10.05;;;8.50;99.90;;;;;;5072474;28;20016;-37
2021/11/05 07:38:26;;;;;;;15.80;9.85;;;8.60;99.90;;;;;;5073241;28;20024;-37
2021/11/05 07:40:51;;;;;;;14.50;8.98;;;8.60;99.90;;;;;;5073432;28;20350;-38
2021/11/05 07:43:17;;;;;;;14.57;9.85;;;8.60;99.90;;;;;;5073430;28;20094;-37
2021/11/05 07:45:42;;;;;;;15.15;8.68;;;8.60;99.90;;;;;;5072313;28;20079;-37
2021/11/05 07:48:08;;;;;;;13.90;8.27;;;8.70;99.90;;;;;;5073419;28;20103;-37
2021/11/05 07:50:34;;;;;;;15.63;10.10;;;8.70;99.90;;;;;;5072336;28;20020;-37
2021/11/05 07:53:04;;;;;;;16.25;10.48;;;8.80;99.90;;;;;;5072500;28;20032;-37
2021/11/05 07:55:30;;;;;;;14.80;9.85;;;8.80;99.90;;;;;;5072828;28;20459;-37
2021/11/05 07:57:56;;;;;;;16.63;9.07;;;8.80;99.90;;;;;;5073539;28;20033;-37
2021/11/05 08:00:22;;;;;;;16.90;9.32;;;8.80;99.90;;;;;;5071746;28;20099;-37
2021/11/05 08:02:47;;;;;;;13.77;8.88;;;8.80;99.90;;;;;;5073115;28;20440;-37
2021/11/05 08:05:13;;;;;;;14.23;9.65;;;8.80;99.90;;;;;;5072903;28;20024;-37
2021/11/05 08:07:40;;;;;;;13.98;9.18;;;8.80;99.90;;;;;;5072272;28;20025;-37
2021/11/05 08:10:06;;;;;;;14.75;8.85;;;8.80;99.90;;;;;;5071872;28;20032;-37
2021/11/05 08:12:32;;;;;;;14.80;9.02;;;8.80;99.90;;;;;;5069018;28;20025;-37
2021/11/05 08:14:58;;;;;;;13.70;9.02;;;8.90;99.90;;;;;;5072133;28;20023;-37
2021/11/05 08:17:24;;;;;;;14.15;8.43;;;8.90;99.90;;;;;;5073983;28;20028;-38
2021/11/05 08:19:50;;;;;;;15.05;8.18;;;8.90;99.90;;;;;;5073824;28;20046;-37
2021/11/05 08:22:17;;;;;;;16.80;9.85;;;8.90;99.90;;;;;;5073637;28;20105;-37
2021/11/05 08:24:43;;;;;;;14.68;10.68;;;8.90;99.90;;;;;;5073642;28;20025;-37
2021/11/05 08:27:09;;;;;;;13.00;9.00;;;8.90;99.90;;;;;;5073739;28;20029;-37
2021/11/05 08:29:35;;;;;;;16.85;11.35;;;8.90;99.90;;;;;;5072387;28;20036;-37
2021/11/05 08:32:00;;;;;;;13.93;8.93;;;8.90;99.90;;;;;;5073533;28;20044;-37
2021/11/05 08:34:26;;;;;;;12.57;9.52;;;9.00;99.90;;;;;;5073796;28;20036;-37
2021/11/05 08:36:51;;;;;;;12.80;8.73;;;9.00;99.90;;;;;;5073885;28;20380;-38
2021/11/05 08:39:17;;;;;;;12.25;8.52;;;9.00;99.90;;;;;;5073587;28;20028;-37
2021/11/05 08:41:42;;;;;;;14.07;8.20;;;9.00;99.90;;;;;;5073780;28;20364;-38
2021/11/05 08:44:10;;;;;;;12.98;8.48;;;9.00;99.90;;;;;;5072464;28;20043;-37
2021/11/05 08:46:37;;;;;;;12.73;7.60;;;9.10;99.90;;;;;;5073526;28;20429;-38
2021/11/05 08:49:10;;;;;;;11.13;7.75;;;9.10;99.90;;;;;;5073592;28;20032;-37
2021/11/05 08:51:36;;;;;;;10.82;7.18;;;9.10;99.90;;;;;;5068859;28;20107;-37
2021/11/05 08:54:03;;;;;;;12.55;6.22;;;9.20;99.90;;;;;;5057069;28;20108;-37
2021/11/05 08:56:28;;;;;;;12.13;7.60;;;9.20;99.90;;;;;;5070883;28;20033;-38
2021/11/05 08:58:54;;;;;;;13.90;8.15;;;9.20;99.90;;;;;;5064845;28;20055;-37
2021/11/05 09:01:19;;;;;;;14.05;7.18;;;9.20;99.90;;;;;;5086352;28;20040;-37
2021/11/05 09:03:45;;;;;;;12.02;6.55;;;9.20;99.90;;;;;;5081823;28;20020;-37
2021/11/05 09:06:11;;;;;;;11.68;7.82;;;9.30;99.90;;;;;;5091629;28;20360;-38
2021/11/05 09:08:37;;;;;;;11.38;6.25;;;9.30;99.90;;;;;;5093652;28;20094;-38
2021/11/05 09:11:04;;;;;;;10.45;6.50;;;9.30;99.90;;;;;;5089041;28;20025;-37
2021/11/05 09:13:31;;;;;;;9.45;6.18;;;9.40;99.90;;;;;;5073055;28;20017;-37
2021/11/05 09:15:57;;;;;;;10.13;6.40;;;9.40;99.90;;;;;;5072086;28;20027;-37
2021/11/05 09:18:22;;;;;;;10.48;6.32;;;9.50;99.90;;;;;;5072986;28;20017;-37
2021/11/05 09:20:48;;;;;;;12.40;6.60;;;9.50;99.90;;;;;;5073124;28;20104;-37
2021/11/05 09:23:14;;;;;;;9.00;5.70;;;9.50;99.90;;;;;;5072819;28;20502;-38
2021/11/05 09:25:40;;;;;;;12.25;7.18;;;9.50;99.90;;;;;;5072993;28;20202;-38
2021/11/05 09:28:05;;;;;;;10.43;6.25;;;9.50;99.90;;;;;;5072923;28;20473;-37
2021/11/05 09:30:31;;;;;;;9.60;5.57;;;9.50;99.90;;;;;;5071718;28;20040;-37
2021/11/05 09:32:57;;;;;;;11.60;6.95;;;9.60;99.90;;;;;;5072712;28;20074;-38
2021/11/05 09:35:24;;;;;;;9.48;5.55;;;9.60;99.90;;;;;;5072713;28;20423;-39
2021/11/05 09:37:51;;;;;;;8.88;6.18;;;9.70;99.90;;;;;;5066881;28;20471;-38
2021/11/05 09:40:19;;;;;;;8.93;5.75;;;9.70;99.90;;;;;;5072828;28;20043;-38
2021/11/05 09:42:48;;;;;;;10.90;7.13;;;9.70;99.90;;;;;;5080876;28;20033;-38
2021/11/05 09:45:19;;;;;;;9.35;6.07;;;9.70;99.90;;;;;;5071768;28;20029;-37
2021/11/05 09:47:46;;;;;;;10.52;5.50;;;9.70;99.90;;;;;;5072643;28;20024;-37
2021/11/05 09:50:15;;;;;;;8.30;5.28;;;9.80;99.90;;;;;;5069319;28;20253;-38
2021/11/05 09:52:41;;;;;;;7.13;4.88;;;9.90;99.90;;;;;;5067001;28;20067;-37
2021/11/05 09:55:07;;;;;;;7.97;4.90;;;9.90;99.90;;;;;;5052285;28;20064;-38
2021/11/05 09:57:33;;;;;;;7.78;5.10;;;9.90;99.90;;;;;;5075113;28;20231;-38
2021/11/05 09:59:59;;;;;;;8.07;5.15;;;9.90;99.90;;;;;;5062347;28;20032;-38
2021/11/05 10:02:25;;;;;;;7.28;5.13;;;9.90;99.90;;;;;;5052231;28;20036;-37
2021/11/05 10:04:51;;;;;;;6.78;4.55;;;9.90;99.90;;;;;;5066966;28;20040;-37
2021/11/05 10:07:17;;;;;;;9.13;5.15;;;9.90;99.90;;;;;;5069479;28;20025;-38
2021/11/05 10:09:54;;;;;;;7.78;4.50;;;9.90;99.90;;;;;;5052107;28;20041;-37
2021/11/05 10:12:23;;;;;;;6.65;4.25;;;9.90;99.90;;;;;;5071166;28;20020;-37
2021/11/05 10:14:55;;;;;;;7.43;4.50;;;9.90;99.90;;;;;;5051982;28;20456;-37
2021/11/05 10:17:22;;;;;;;5.60;4.25;;;9.90;99.90;;;;;;5058901;28;20020;-38
2021/11/05 10:20:00;;;;;;;8.77;4.13;;;9.90;99.90;;;;;;5072287;28;20031;-38
2021/11/05 10:22:50;;;;;;;7.78;4.05;;;9.90;99.90;;;;;;5072015;28;20028;-37
2021/11/05 10:25:25;;;;;;;8.55;4.20;;;10.00;99.90;;;;;;5072134;28;20040;-40
2021/11/05 10:28:12;;;;;;;8.85;4.18;;;10.00;99.90;;;;;;5065465;28;20032;-37
2021/11/05 10:30:43;;;;;;;5.25;3.63;;;10.10;99.90;;;;;;5052842;28;20115;-38
2021/11/05 10:33:13;;;;;;;6.82;3.85;;;10.20;99.90;;;;;;5067789;28;20143;-38
2021/11/05 10:35:41;;;;;;;6.22;3.30;;;10.30;99.90;;;;;;5075985;28;20503;-38
2021/11/05 10:38:10;;;;;;;7.45;4.30;;;10.40;99.90;;;;;;5075850;28;20020;-37
2021/11/05 10:40:49;;;;;;;8.68;4.35;;;10.40;99.90;;;;;;5075462;28;20409;-39
2021/11/05 10:43:29;;;;;;;6.63;3.85;;;10.40;99.90;;;;;;5075527;28;20526;-37
2021/11/05 10:45:56;;;;;;;6.15;3.97;;;10.40;99.90;;;;;;5058252;28;20037;-37
2021/11/05 10:48:23;;;;;;;4.80;3.47;;;10.50;99.90;;;;;;5055892;28;20067;-38
2021/11/05 10:50:55;;;;;;;6.75;4.10;;;10.50;99.90;;;;;;5055587;28;20491;-38
2021/11/05 10:53:23;;;;;;;4.97;3.70;;;10.50;99.90;;;;;;5062625;28;20416;-38
2021/11/05 10:55:57;;;;;;;6.93;3.38;;;10.50;99.90;;;;;;5075691;28;20036;-37
2021/11/05 10:58:31;;;;;;;6.13;3.10;;;10.50;99.90;;;;;;5068809;28;20029;-37
2021/11/05 11:01:04;;;;;;;5.55;3.40;;;10.40;99.90;;;;;;5052948;28;20076;-38
2021/11/05 11:03:32;;;;;;;3.67;2.65;;;10.40;99.90;;;;;;5062158;28;20393;-38
2021/11/05 11:06:02;;;;;;;3.65;2.53;;;10.40;99.90;;;;;;5063007;28;20431;-38
2021/11/05 11:08:34;;;;;;;3.28;2.65;;;10.40;99.90;;;;;;5057928;28;20078;-38
2021/11/05 11:11:22;;;;;;;7.18;3.00;;;10.30;99.90;;;;;;5069987;28;20056;-37
2021/11/05 11:13:51;;;;;;;3.75;2.53;;;10.30;99.90;;;;;;5055791;28;20045;-38
2021/11/05 11:16:23;;;;;;;3.00;2.15;;;10.30;99.90;;;;;;5066849;28;20039;-37
2021/11/05 11:19:04;;;;;;;2.85;2.08;;;10.30;99.90;;;;;;5072441;28;20467;-37
2021/11/05 11:21:33;;;;;;;3.40;2.15;;;10.30;99.90;;;;;;5072200;28;20045;-38
2021/11/05 11:24:00;;;;;;;5.30;2.75;;;10.30;99.90;;;;;;5072435;28;20039;-38
2021/11/05 11:26:27;;;;;;;2.47;2.00;;;10.40;99.90;;;;;;5072390;28;20029;-37
2021/11/05 11:28:53;;;;;;;3.10;2.08;;;10.40;99.90;;;;;;5071242;28;20028;-40
2021/11/05 11:31:20;;;;;;;5.20;2.50;;;10.50;99.90;;;;;;5072200;28;20059;-37
2021/11/05 11:33:47;;;;;;;4.68;2.40;;;10.60;99.90;;;;;;5072214;28;20056;-37
2021/11/05 11:36:14;;;;;;;5.90;2.25;;;10.60;99.90;;;;;;5072179;28;20439;-39
2021/11/05 11:38:40;;;;;;;3.20;1.73;;;10.70;99.90;;;;;;5071991;28;20055;-39
2021/11/05 11:41:11;;;;;;;3.22;1.80;;;10.80;99.90;;;;;;5071425;28;20513;-37
2021/11/05 11:43:40;;;;;;;4.95;2.03;;;10.80;99.90;;;;;;5071229;28;20029;-40
2021/11/05 11:46:06;;;;;;;7.10;2.22;;;10.90;99.90;;;;;;5071976;28;20056;-38
2021/11/05 11:48:36;;;;;;;3.20;2.15;;;10.90;99.90;;;;;;5072906;28;20059;-37
2021/11/05 11:51:29;;;;;;;4.55;1.60;;;11.00;99.90;;;;;;5073143;28;20123;-38
2021/11/05 11:54:02;;;;;;;4.75;1.95;;;11.00;99.90;;;;;;5073060;28;20425;-37
2021/11/05 11:56:34;;;;;;;2.15;1.50;;;11.10;99.90;;;;;;5073204;28;20027;-38
2021/11/05 11:59:05;;;;;;;2.60;1.63;;;11.10;99.90;;;;;;5072204;28;20381;-37
2021/11/05 12:01:35;;;;;;;1.80;1.40;;;11.00;99.90;;;;;;5070904;28;20036;-39
2021/11/05 12:04:04;;;;;;;2.72;1.70;;;11.00;99.90;;;;;;5054634;28;20024;-38
2021/11/05 12:06:52;;;;;;;3.15;1.75;;;11.00;99.90;;;;;;5064178;28;20036;-37
2021/11/05 12:09:32;;;;;;;2.47;1.70;;;10.90;99.90;;;;;;5066299;28;20107;-37
2021/11/05 12:12:19;;;;;;;4.18;1.50;;;10.90;99.90;;;;;;5074091;28;20422;-37
2021/11/05 12:15:03;;;;;;;2.85;1.60;;;10.90;99.90;;;;;;5073025;28;20017;-38
2021/11/05 12:17:31;;;;;;;2.25;1.50;;;10.90;99.90;;;;;;5074212;28;20024;-37
2021/11/05 12:20:00;;;;;;;5.78;2.45;;;10.90;99.90;;;;;;5074236;28;20024;-38
2021/11/05 12:22:27;;;;;;;2.33;1.67;;;10.90;99.90;;;;;;5074051;28;20074;-38
2021/11/05 12:25:12;;;;;;;5.53;1.85;;;10.90;99.90;;;;;;5074093;28;20035;-37
2021/11/05 12:27:38;;;;;;;5.10;1.73;;;10.90;99.90;;;;;;5073664;28;20032;-37
2021/11/05 12:30:10;;;;;;;2.50;1.45;;;10.90;99.90;;;;;;5072934;28;20081;-38
2021/11/05 12:32:37;;;;;;;4.63;1.40;;;10.80;99.90;;;;;;5073770;28;20040;-38
2021/11/05 12:35:03;;;;;;;2.22;1.85;;;10.80;99.90;;;;;;5073852;28;20112;-37
2021/11/05 12:37:33;;;;;;;1.88;1.63;;;10.80;99.90;;;;;;5073902;28;20021;-37
2021/11/05 12:40:20;;;;;;;3.40;1.63;;;10.80;99.90;;;;;;5073788;28;20131;-38
2021/11/05 12:42:47;;;;;;;4.43;2.08;;;10.80;99.90;;;;;;5073725;28;20021;-37
2021/11/05 12:45:13;;;;;;;2.55;1.40;;;10.80;99.90;;;;;;5072513;28;20112;-37
2021/11/05 12:47:53;;;;;;;4.35;2.00;;;10.80;99.90;;;;;;5073457;28;20533;-37
2021/11/05 12:50:25;;;;;;;2.50;1.60;;;10.90;99.90;;;;;;5073524;28;20391;-37